sensor_id;sensor_type;location;lat;lon;timestamp;temperature;humidity
24326;DHT22;12448;45.532;5.290;2024-01-16T00:01:45;2.50;99.90
24326;DHT22;12448;45.532;5.290;2024-01-16T00:04:11;2.50;99.90
24326;DHT22;12448;45.532;5.290;2024-01-16T00:06:40;2.50;99.90
24326;DHT22;12448;45.532;5.290;2024-01-16T00:09:06;2.50;99.90
24326;DHT22;12448;45.532;5.290;2024-01-16T00:11:32;2.40;99.90
24326;DHT22;12448;45.532;5.290;2024-01-16T00:13:58;2.30;99.90
24326;DHT22;12448;45.532;5.290;2024-01-16T00:16:23;2.20;99.90
24326;DHT22;12448;45.532;5.290;2024-01-16T00:18:49;2.30;99.90
24326;DHT22;12448;45.532;5.290;2024-01-16T00:21:15;2.30;99.90
24326;DHT22;12448;45.532;5.290;2024-01-16T00:23:40;2.30;99.90
24326;DHT22;12448;45.532;5.290;2024-01-16T00:26:06;2.30;99.90
24326;DHT22;12448;45.532;5.290;2024-01-16T00:28:32;2.30;99.90
24326;DHT22;12448;45.532;5.290;2024-01-16T00:30:58;2.30;99.90
24326;DHT22;12448;45.532;5.290;2024-01-16T00:33:23;2.30;99.90
24326;DHT22;12448;45.532;5.290;2024-01-16T00:35:49;2.60;99.90
24326;DHT22;12448;45.532;5.290;2024-01-16T00:38:15;2.30;99.90
24326;DHT22;12448;45.532;5.290;2024-01-16T00:40:40;2.30;99.90
24326;DHT22;12448;45.532;5.290;2024-01-16T00:43:06;2.20;99.90
24326;DHT22;12448;45.532;5.290;2024-01-16T00:45:31;2.20;99.90
24326;DHT22;12448;45.532;5.290;2024-01-16T00:47:57;2.30;99.90
24326;DHT22;12448;45.532;5.290;2024-01-16T00:50:23;2.20;99.90
24326;DHT22;12448;45.532;5.290;2024-01-16T00:52:49;2.30;99.90
24326;DHT22;12448;45.532;5.290;2024-01-16T00:55:15;2.30;99.90
24326;DHT22;12448;45.532;5.290;2024-01-16T00:57:41;2.40;99.90
24326;DHT22;12448;45.532;5.290;2024-01-16T01:00:07;2.40;99.90
24326;DHT22;12448;45.532;5.290;2024-01-16T01:02:33;2.50;99.90
24326;DHT22;12448;45.532;5.290;2024-01-16T01:04:58;2.30;99.90
24326;DHT22;12448;45.532;5.290;2024-01-16T01:07:24;2.30;99.90
24326;DHT22;12448;45.532;5.290;2024-01-16T01:09:51;2.30;99.90
24326;DHT22;12448;45.532;5.290;2024-01-16T01:12:16;2.30;99.90
24326;DHT22;12448;45.532;5.290;2024-01-16T01:14:42;2.90;99.90
24326;DHT22;12448;45.532;5.290;2024-01-16T01:17:08;2.30;99.90
24326;DHT22;12448;45.532;5.290;2024-01-16T01:19:33;2.60;99.90
24326;DHT22;12448;45.532;5.290;2024-01-16T01:21:59;2.30;99.90
24326;DHT22;12448;45.532;5.290;2024-01-16T01:24:25;2.30;99.90
24326;DHT22;12448;45.532;5.290;2024-01-16T01:26:50;2.30;99.90
24326;DHT22;12448;45.532;5.290;2024-01-16T01:29:16;2.20;99.90
24326;DHT22;12448;45.532;5.290;2024-01-16T01:31:45;2.60;99.90
24326;DHT22;12448;45.532;5.290;2024-01-16T01:34:12;2.00;99.90
24326;DHT22;12448;45.532;5.290;2024-01-16T01:36:38;2.00;99.90
24326;DHT22;12448;45.532;5.290;2024-01-16T01:39:04;2.00;99.90
24326;DHT22;12448;45.532;5.290;2024-01-16T01:44:51;2.00;99.90
24326;DHT22;12448;45.532;5.290;2024-01-16T01:47:17;2.10;99.90
24326;DHT22;12448;45.532;5.290;2024-01-16T01:49:43;2.30;99.90
24326;DHT22;12448;45.532;5.290;2024-01-16T01:52:09;2.30;99.90
24326;DHT22;12448;45.532;5.290;2024-01-16T01:54:36;2.40;99.90
24326;DHT22;12448;45.532;5.290;2024-01-16T01:57:02;2.20;99.90
24326;DHT22;12448;45.532;5.290;2024-01-16T01:59:29;2.10;99.90
24326;DHT22;12448;45.532;5.290;2024-01-16T02:01:56;2.00;99.90
24326;DHT22;12448;45.532;5.290;2024-01-16T02:04:22;2.00;99.90
24326;DHT22;12448;45.532;5.290;2024-01-16T02:06:49;2.00;99.90
24326;DHT22;12448;45.532;5.290;2024-01-16T02:09:15;1.90;99.90
24326;DHT22;12448;45.532;5.290;2024-01-16T02:11:42;2.00;99.90
24326;DHT22;12448;45.532;5.290;2024-01-16T02:14:08;1.80;99.90
24326;DHT22;12448;45.532;5.290;2024-01-16T02:16:41;1.70;99.90
24326;DHT22;12448;45.532;5.290;2024-01-16T02:19:08;1.80;99.90
24326;DHT22;12448;45.532;5.290;2024-01-16T02:21:39;1.90;99.90
24326;DHT22;12448;45.532;5.290;2024-01-16T02:24:08;2.00;99.90
24326;DHT22;12448;45.532;5.290;2024-01-16T02:26:33;2.00;99.90
24326;DHT22;12448;45.532;5.290;2024-01-16T02:29:03;1.90;99.90
24326;DHT22;12448;45.532;5.290;2024-01-16T02:31:32;1.90;99.90
24326;DHT22;12448;45.532;5.290;2024-01-16T02:33:58;1.80;99.90
24326;DHT22;12448;45.532;5.290;2024-01-16T02:36:25;1.70;99.90
24326;DHT22;12448;45.532;5.290;2024-01-16T02:38:51;1.70;99.90
24326;DHT22;12448;45.532;5.290;2024-01-16T02:41:18;1.80;99.90
24326;DHT22;12448;45.532;5.290;2024-01-16T02:43:44;1.90;99.90
24326;DHT22;12448;45.532;5.290;2024-01-16T02:46:10;2.00;99.90
24326;DHT22;12448;45.532;5.290;2024-01-16T02:48:38;2.20;99.90
24326;DHT22;12448;45.532;5.290;2024-01-16T02:51:04;2.30;99.90
24326;DHT22;12448;45.532;5.290;2024-01-16T02:53:31;2.40;99.90
24326;DHT22;12448;45.532;5.290;2024-01-16T02:55:57;2.40;99.90
24326;DHT22;12448;45.532;5.290;2024-01-16T02:58:24;2.50;99.90
24326;DHT22;12448;45.532;5.290;2024-01-16T03:00:50;2.60;99.90
24326;DHT22;12448;45.532;5.290;2024-01-16T03:03:17;2.60;99.90
24326;DHT22;12448;45.532;5.290;2024-01-16T03:05:42;2.60;99.90
24326;DHT22;12448;45.532;5.290;2024-01-16T03:08:08;2.70;99.90
24326;DHT22;12448;45.532;5.290;2024-01-16T03:10:33;2.70;99.90
24326;DHT22;12448;45.532;5.290;2024-01-16T03:12:59;2.60;99.90
24326;DHT22;12448;45.532;5.290;2024-01-16T03:15:25;2.50;99.90
24326;DHT22;12448;45.532;5.290;2024-01-16T03:17:51;2.50;99.90
24326;DHT22;12448;45.532;5.290;2024-01-16T03:20:17;2.50;99.90
24326;DHT22;12448;45.532;5.290;2024-01-16T03:22:44;2.50;99.90
24326;DHT22;12448;45.532;5.290;2024-01-16T03:25:10;2.40;99.90
24326;DHT22;12448;45.532;5.290;2024-01-16T03:27:37;2.40;99.90
24326;DHT22;12448;45.532;5.290;2024-01-16T03:30:03;2.30;99.90
24326;DHT22;12448;45.532;5.290;2024-01-16T03:32:29;2.20;99.90
24326;DHT22;12448;45.532;5.290;2024-01-16T03:34:54;2.20;99.90
24326;DHT22;12448;45.532;5.290;2024-01-16T03:37:20;2.10;99.90
24326;DHT22;12448;45.532;5.290;2024-01-16T03:39:46;2.10;99.90
24326;DHT22;12448;45.532;5.290;2024-01-16T03:42:11;2.60;99.90
24326;DHT22;12448;45.532;5.290;2024-01-16T03:44:40;2.10;99.90
24326;DHT22;12448;45.532;5.290;2024-01-16T03:47:06;2.20;99.90
24326;DHT22;12448;45.532;5.290;2024-01-16T03:49:32;2.20;99.90
24326;DHT22;12448;45.532;5.290;2024-01-16T03:51:58;2.30;99.90
24326;DHT22;12448;45.532;5.290;2024-01-16T03:54:24;2.40;99.90
24326;DHT22;12448;45.532;5.290;2024-01-16T03:56:49;2.40;99.90
24326;DHT22;12448;45.532;5.290;2024-01-16T03:59:16;2.40;99.90
24326;DHT22;12448;45.532;5.290;2024-01-16T04:01:41;2.50;99.90
24326;DHT22;12448;45.532;5.290;2024-01-16T04:04:09;2.50;99.90
24326;DHT22;12448;45.532;5.290;2024-01-16T04:06:35;2.50;99.90
24326;DHT22;12448;45.532;5.290;2024-01-16T04:09:01;2.50;99.90
24326;DHT22;12448;45.532;5.290;2024-01-16T04:11:28;2.50;99.90
24326;DHT22;12448;45.532;5.290;2024-01-16T04:13:54;2.50;99.90
24326;DHT22;12448;45.532;5.290;2024-01-16T04:16:20;2.50;99.90
24326;DHT22;12448;45.532;5.290;2024-01-16T04:18:45;2.40;99.90
24326;DHT22;12448;45.532;5.290;2024-01-16T04:21:11;2.50;99.90
24326;DHT22;12448;45.532;5.290;2024-01-16T04:23:37;2.50;99.90
24326;DHT22;12448;45.532;5.290;2024-01-16T04:26:02;2.50;99.90
24326;DHT22;12448;45.532;5.290;2024-01-16T04:28:28;2.50;99.90
24326;DHT22;12448;45.532;5.290;2024-01-16T04:30:54;2.50;99.90
24326;DHT22;12448;45.532;5.290;2024-01-16T04:33:19;2.50;99.90
24326;DHT22;12448;45.532;5.290;2024-01-16T04:35:45;2.50;99.90
24326;DHT22;12448;45.532;5.290;2024-01-16T04:38:11;2.50;99.90
24326;DHT22;12448;45.532;5.290;2024-01-16T04:40:36;2.50;99.90
24326;DHT22;12448;45.532;5.290;2024-01-16T04:43:02;2.40;99.90
24326;DHT22;12448;45.532;5.290;2024-01-16T04:45:28;2.40;99.90
24326;DHT22;12448;45.532;5.290;2024-01-16T04:47:54;2.30;99.90
24326;DHT22;12448;45.532;5.290;2024-01-16T04:50:19;2.30;99.90
24326;DHT22;12448;45.532;5.290;2024-01-16T04:52:45;2.30;99.90
24326;DHT22;12448;45.532;5.290;2024-01-16T04:55:11;2.20;99.90
24326;DHT22;12448;45.532;5.290;2024-01-16T04:57:36;2.10;99.90
24326;DHT22;12448;45.532;5.290;2024-01-16T05:00:02;2.20;99.90
24326;DHT22;12448;45.532;5.290;2024-01-16T05:02:32;1.60;99.90
24326;DHT22;12448;45.532;5.290;2024-01-16T05:04:58;1.90;99.90
24326;DHT22;12448;45.532;5.290;2024-01-16T05:07:25;1.90;99.90
24326;DHT22;12448;45.532;5.290;2024-01-16T05:09:51;2.40;99.90
24326;DHT22;12448;45.532;5.290;2024-01-16T05:12:17;1.80;99.90
24326;DHT22;12448;45.532;5.290;2024-01-16T05:14:43;2.10;99.90
24326;DHT22;12448;45.532;5.290;2024-01-16T05:17:08;1.90;99.90
24326;DHT22;12448;45.532;5.290;2024-01-16T05:19:34;2.00;99.90
24326;DHT22;12448;45.532;5.290;2024-01-16T05:21:59;2.00;99.90
24326;DHT22;12448;45.532;5.290;2024-01-16T05:24:25;2.10;99.90
24326;DHT22;12448;45.532;5.290;2024-01-16T05:26:51;2.10;99.90
24326;DHT22;12448;45.532;5.290;2024-01-16T05:29:18;2.40;99.90
24326;DHT22;12448;45.532;5.290;2024-01-16T05:31:43;2.50;99.90
24326;DHT22;12448;45.532;5.290;2024-01-16T05:34:10;2.20;99.90
24326;DHT22;12448;45.532;5.290;2024-01-16T05:36:36;2.70;99.90
24326;DHT22;12448;45.532;5.290;2024-01-16T05:39:02;2.10;99.90
24326;DHT22;12448;45.532;5.290;2024-01-16T05:41:32;2.10;99.90
24326;DHT22;12448;45.532;5.290;2024-01-16T05:43:57;2.00;99.90
24326;DHT22;12448;45.532;5.290;2024-01-16T05:46:23;1.90;99.90
24326;DHT22;12448;45.532;5.290;2024-01-16T05:48:48;1.90;99.90
24326;DHT22;12448;45.532;5.290;2024-01-16T05:51:14;2.00;99.90
24326;DHT22;12448;45.532;5.290;2024-01-16T05:53:39;2.00;99.90
24326;DHT22;12448;45.532;5.290;2024-01-16T05:56:05;2.10;99.90
24326;DHT22;12448;45.532;5.290;2024-01-16T05:58:31;2.40;99.90
24326;DHT22;12448;45.532;5.290;2024-01-16T06:01:01;2.00;99.90
24326;DHT22;12448;45.532;5.290;2024-01-16T06:03:26;2.00;99.90
24326;DHT22;12448;45.532;5.290;2024-01-16T06:05:52;2.00;99.90
24326;DHT22;12448;45.532;5.290;2024-01-16T06:08:17;2.00;99.90
24326;DHT22;12448;45.532;5.290;2024-01-16T06:10:45;2.10;99.90
24326;DHT22;12448;45.532;5.290;2024-01-16T06:13:11;2.60;99.90
24326;DHT22;12448;45.532;5.290;2024-01-16T06:15:36;2.20;99.90
24326;DHT22;12448;45.532;5.290;2024-01-16T06:18:02;2.20;99.90
24326;DHT22;12448;45.532;5.290;2024-01-16T06:20:28;2.30;99.90
24326;DHT22;12448;45.532;5.290;2024-01-16T06:22:54;2.30;99.90
24326;DHT22;12448;45.532;5.290;2024-01-16T06:25:20;2.30;99.90
24326;DHT22;12448;45.532;5.290;2024-01-16T06:27:45;2.40;99.90
24326;DHT22;12448;45.532;5.290;2024-01-16T06:30:12;2.30;99.90
24326;DHT22;12448;45.532;5.290;2024-01-16T06:32:38;2.30;99.90
24326;DHT22;12448;45.532;5.290;2024-01-16T06:35:04;2.40;99.90
24326;DHT22;12448;45.532;5.290;2024-01-16T06:37:31;2.40;99.90
24326;DHT22;12448;45.532;5.290;2024-01-16T06:39:56;2.40;99.90
24326;DHT22;12448;45.532;5.290;2024-01-16T06:42:22;2.40;99.90
24326;DHT22;12448;45.532;5.290;2024-01-16T06:44:48;2.50;99.90
24326;DHT22;12448;45.532;5.290;2024-01-16T06:47:13;2.50;99.90
24326;DHT22;12448;45.532;5.290;2024-01-16T06:49:39;2.50;99.90
24326;DHT22;12448;45.532;5.290;2024-01-16T06:52:05;2.50;99.90
24326;DHT22;12448;45.532;5.290;2024-01-16T06:54:30;2.40;99.90
24326;DHT22;12448;45.532;5.290;2024-01-16T06:56:56;2.40;99.90
24326;DHT22;12448;45.532;5.290;2024-01-16T06:59:22;2.30;99.90
24326;DHT22;12448;45.532;5.290;2024-01-16T07:01:47;2.20;99.90
24326;DHT22;12448;45.532;5.290;2024-01-16T07:04:14;2.10;99.90
24326;DHT22;12448;45.532;5.290;2024-01-16T07:06:40;2.10;99.90
24326;DHT22;12448;45.532;5.290;2024-01-16T07:09:06;2.00;99.90
24326;DHT22;12448;45.532;5.290;2024-01-16T07:11:32;2.00;99.90
24326;DHT22;12448;45.532;5.290;2024-01-16T07:13:58;2.00;99.90
24326;DHT22;12448;45.532;5.290;2024-01-16T07:16:23;2.00;99.90
24326;DHT22;12448;45.532;5.290;2024-01-16T07:18:50;2.30;99.90
24326;DHT22;12448;45.532;5.290;2024-01-16T07:21:16;1.90;99.90
24326;DHT22;12448;45.532;5.290;2024-01-16T07:23:42;1.90;99.90
24326;DHT22;12448;45.532;5.290;2024-01-16T07:26:08;1.90;99.90
24326;DHT22;12448;45.532;5.290;2024-01-16T07:28:33;2.00;99.90
24326;DHT22;12448;45.532;5.290;2024-01-16T07:30:59;2.10;99.90
24326;DHT22;12448;45.532;5.290;2024-01-16T07:33:25;2.20;99.90
24326;DHT22;12448;45.532;5.290;2024-01-16T07:35:50;2.20;99.90
24326;DHT22;12448;45.532;5.290;2024-01-16T07:38:16;2.30;99.90
24326;DHT22;12448;45.532;5.290;2024-01-16T07:40:41;2.80;99.90
24326;DHT22;12448;45.532;5.290;2024-01-16T07:43:07;2.40;99.90
24326;DHT22;12448;45.532;5.290;2024-01-16T07:45:32;2.50;99.90
24326;DHT22;12448;45.532;5.290;2024-01-16T07:47:58;2.60;99.90
24326;DHT22;12448;45.532;5.290;2024-01-16T07:50:23;2.60;99.90
24326;DHT22;12448;45.532;5.290;2024-01-16T07:52:49;2.60;99.90
24326;DHT22;12448;45.532;5.290;2024-01-16T07:55:16;2.60;99.90
24326;DHT22;12448;45.532;5.290;2024-01-16T07:57:43;2.80;99.90
24326;DHT22;12448;45.532;5.290;2024-01-16T08:00:09;2.60;99.90
24326;DHT22;12448;45.532;5.290;2024-01-16T08:02:37;2.70;99.90
24326;DHT22;12448;45.532;5.290;2024-01-16T08:05:04;2.60;99.90
24326;DHT22;12448;45.532;5.290;2024-01-16T08:07:29;2.60;99.90
24326;DHT22;12448;45.532;5.290;2024-01-16T08:09:55;2.60;99.90
24326;DHT22;12448;45.532;5.290;2024-01-16T08:12:21;2.60;99.90
24326;DHT22;12448;45.532;5.290;2024-01-16T08:14:47;2.60;99.90
24326;DHT22;12448;45.532;5.290;2024-01-16T08:17:12;2.60;99.90
24326;DHT22;12448;45.532;5.290;2024-01-16T08:19:38;2.60;99.90
24326;DHT22;12448;45.532;5.290;2024-01-16T08:22:04;2.80;99.90
24326;DHT22;12448;45.532;5.290;2024-01-16T08:24:29;2.60;99.90
24326;DHT22;12448;45.532;5.290;2024-01-16T08:26:55;2.60;99.90
24326;DHT22;12448;45.532;5.290;2024-01-16T08:29:23;2.60;99.90
24326;DHT22;12448;45.532;5.290;2024-01-16T08:31:50;2.60;99.90
24326;DHT22;12448;45.532;5.290;2024-01-16T08:34:17;2.70;99.90
24326;DHT22;12448;45.532;5.290;2024-01-16T08:36:44;2.70;99.90
24326;DHT22;12448;45.532;5.290;2024-01-16T08:39:09;2.70;99.90
24326;DHT22;12448;45.532;5.290;2024-01-16T08:41:36;2.70;99.90
24326;DHT22;12448;45.532;5.290;2024-01-16T08:44:02;2.80;99.90
24326;DHT22;12448;45.532;5.290;2024-01-16T08:46:27;2.80;99.90
24326;DHT22;12448;45.532;5.290;2024-01-16T08:48:53;2.80;99.90
24326;DHT22;12448;45.532;5.290;2024-01-16T08:51:19;2.80;99.90
24326;DHT22;12448;45.532;5.290;2024-01-16T08:53:45;2.90;99.90
24326;DHT22;12448;45.532;5.290;2024-01-16T08:56:11;2.90;99.90
24326;DHT22;12448;45.532;5.290;2024-01-16T08:58:38;2.90;99.90
24326;DHT22;12448;45.532;5.290;2024-01-16T09:01:04;2.90;99.90
24326;DHT22;12448;45.532;5.290;2024-01-16T09:03:32;2.90;99.90
24326;DHT22;12448;45.532;5.290;2024-01-16T09:05:58;3.00;99.90
24326;DHT22;12448;45.532;5.290;2024-01-16T09:08:25;3.00;99.90
24326;DHT22;12448;45.532;5.290;2024-01-16T09:10:52;2.90;99.90
24326;DHT22;12448;45.532;5.290;2024-01-16T09:13:17;2.90;99.90
24326;DHT22;12448;45.532;5.290;2024-01-16T09:15:43;2.80;99.90
24326;DHT22;12448;45.532;5.290;2024-01-16T09:18:08;2.70;99.90
24326;DHT22;12448;45.532;5.290;2024-01-16T09:20:34;2.70;99.90
24326;DHT22;12448;45.532;5.290;2024-01-16T09:23:00;3.20;99.90
24326;DHT22;12448;45.532;5.290;2024-01-16T09:25:25;2.70;99.90
24326;DHT22;12448;45.532;5.290;2024-01-16T09:27:52;2.80;99.90
24326;DHT22;12448;45.532;5.290;2024-01-16T09:30:18;2.80;99.90
24326;DHT22;12448;45.532;5.290;2024-01-16T09:32:44;3.00;99.90
24326;DHT22;12448;45.532;5.290;2024-01-16T09:35:10;2.90;99.90
24326;DHT22;12448;45.532;5.290;2024-01-16T09:37:36;2.90;99.90
24326;DHT22;12448;45.532;5.290;2024-01-16T09:40:02;3.00;99.90
24326;DHT22;12448;45.532;5.290;2024-01-16T09:42:30;3.00;99.90
24326;DHT22;12448;45.532;5.290;2024-01-16T09:44:56;3.10;99.90
24326;DHT22;12448;45.532;5.290;2024-01-16T09:47:24;3.00;99.90
24326;DHT22;12448;45.532;5.290;2024-01-16T09:49:50;3.10;99.90
24326;DHT22;12448;45.532;5.290;2024-01-16T09:52:16;3.10;99.90
24326;DHT22;12448;45.532;5.290;2024-01-16T09:54:41;3.10;99.90
24326;DHT22;12448;45.532;5.290;2024-01-16T09:57:07;3.10;99.90
24326;DHT22;12448;45.532;5.290;2024-01-16T09:59:36;3.10;99.90
24326;DHT22;12448;45.532;5.290;2024-01-16T10:02:04;3.20;99.90
24326;DHT22;12448;45.532;5.290;2024-01-16T10:04:33;3.20;99.90
24326;DHT22;12448;45.532;5.290;2024-01-16T10:07:00;3.20;99.90
24326;DHT22;12448;45.532;5.290;2024-01-16T10:09:26;3.20;99.90
24326;DHT22;12448;45.532;5.290;2024-01-16T10:11:52;3.20;99.90
24326;DHT22;12448;45.532;5.290;2024-01-16T10:14:18;3.20;99.90
24326;DHT22;12448;45.532;5.290;2024-01-16T10:17:03;3.20;99.90
24326;DHT22;12448;45.532;5.290;2024-01-16T10:19:34;3.30;99.90
24326;DHT22;12448;45.532;5.290;2024-01-16T10:22:04;3.20;99.90
24326;DHT22;12448;45.532;5.290;2024-01-16T10:24:30;3.20;99.90
24326;DHT22;12448;45.532;5.290;2024-01-16T10:27:00;3.20;99.90
24326;DHT22;12448;45.532;5.290;2024-01-16T10:29:26;3.20;99.90
24326;DHT22;12448;45.532;5.290;2024-01-16T10:31:52;3.50;99.90
24326;DHT22;12448;45.532;5.290;2024-01-16T10:34:21;3.20;99.90
24326;DHT22;12448;45.532;5.290;2024-01-16T10:36:50;3.20;99.90
24326;DHT22;12448;45.532;5.290;2024-01-16T10:39:16;3.20;99.90
24326;DHT22;12448;45.532;5.290;2024-01-16T10:41:41;3.30;99.90
24326;DHT22;12448;45.532;5.290;2024-01-16T10:44:08;3.30;99.90
24326;DHT22;12448;45.532;5.290;2024-01-16T10:46:34;3.30;99.90
24326;DHT22;12448;45.532;5.290;2024-01-16T10:49:01;3.30;99.90
24326;DHT22;12448;45.532;5.290;2024-01-16T10:51:28;3.40;99.90
24326;DHT22;12448;45.532;5.290;2024-01-16T10:53:59;3.50;99.90
24326;DHT22;12448;45.532;5.290;2024-01-16T10:56:27;3.30;99.90
24326;DHT22;12448;45.532;5.290;2024-01-16T10:59:15;3.30;99.90
24326;DHT22;12448;45.532;5.290;2024-01-16T11:01:43;3.20;99.90
24326;DHT22;12448;45.532;5.290;2024-01-16T11:04:12;3.20;99.90
24326;DHT22;12448;45.532;5.290;2024-01-16T11:06:38;3.30;99.90
24326;DHT22;12448;45.532;5.290;2024-01-16T11:09:05;3.40;99.90
24326;DHT22;12448;45.532;5.290;2024-01-16T11:11:33;3.70;99.90
24326;DHT22;12448;45.532;5.290;2024-01-16T11:14:02;3.50;99.90
24326;DHT22;12448;45.532;5.290;2024-01-16T11:16:29;3.80;99.90
24326;DHT22;12448;45.532;5.290;2024-01-16T11:18:57;3.50;99.90
24326;DHT22;12448;45.532;5.290;2024-01-16T11:21:23;3.50;99.90
24326;DHT22;12448;45.532;5.290;2024-01-16T11:23:49;3.60;99.90
24326;DHT22;12448;45.532;5.290;2024-01-16T11:28:50;3.60;99.90
24326;DHT22;12448;45.532;5.290;2024-01-16T11:31:31;3.70;99.90
24326;DHT22;12448;45.532;5.290;2024-01-16T11:33:58;3.70;99.90
24326;DHT22;12448;45.532;5.290;2024-01-16T11:36:43;3.90;99.90
24326;DHT22;12448;45.532;5.290;2024-01-16T11:39:17;3.70;99.90
24326;DHT22;12448;45.532;5.290;2024-01-16T11:41:57;3.70;99.90
24326;DHT22;12448;45.532;5.290;2024-01-16T11:47:22;3.80;99.90
24326;DHT22;12448;45.532;5.290;2024-01-16T11:49:51;3.80;99.90
24326;DHT22;12448;45.532;5.290;2024-01-16T11:52:43;3.90;99.90
24326;DHT22;12448;45.532;5.290;2024-01-16T11:55:31;3.90;99.90
24326;DHT22;12448;45.532;5.290;2024-01-16T12:00:45;4.00;99.90
24326;DHT22;12448;45.532;5.290;2024-01-16T12:03:13;4.00;99.90
24326;DHT22;12448;45.532;5.290;2024-01-16T12:05:42;4.00;99.90
24326;DHT22;12448;45.532;5.290;2024-01-16T12:08:09;4.30;99.90
24326;DHT22;12448;45.532;5.290;2024-01-16T12:10:45;4.10;99.90
24326;DHT22;12448;45.532;5.290;2024-01-16T12:13:12;4.10;99.90
24326;DHT22;12448;45.532;5.290;2024-01-16T12:15:38;4.10;99.90
24326;DHT22;12448;45.532;5.290;2024-01-16T12:18:03;4.20;99.90
24326;DHT22;12448;45.532;5.290;2024-01-16T12:20:33;4.20;99.90
24326;DHT22;12448;45.532;5.290;2024-01-16T12:23:00;4.30;99.90
24326;DHT22;12448;45.532;5.290;2024-01-16T12:25:27;4.30;99.90
24326;DHT22;12448;45.532;5.290;2024-01-16T12:28:00;4.30;99.90
24326;DHT22;12448;45.532;5.290;2024-01-16T12:30:33;4.50;99.90
24326;DHT22;12448;45.532;5.290;2024-01-16T12:33:11;4.70;99.90
24326;DHT22;12448;45.532;5.290;2024-01-16T12:35:40;4.40;99.90
24326;DHT22;12448;45.532;5.290;2024-01-16T12:38:10;4.40;99.90
24326;DHT22;12448;45.532;5.290;2024-01-16T12:40:50;4.40;99.90
24326;DHT22;12448;45.532;5.290;2024-01-16T12:43:20;4.40;99.90
24326;DHT22;12448;45.532;5.290;2024-01-16T12:45:46;4.40;99.90
24326;DHT22;12448;45.532;5.290;2024-01-16T12:48:23;4.50;99.90
24326;DHT22;12448;45.532;5.290;2024-01-16T12:50:49;4.90;99.90
24326;DHT22;12448;45.532;5.290;2024-01-16T12:53:14;4.50;99.90
24326;DHT22;12448;45.532;5.290;2024-01-16T12:55:42;4.50;99.90
24326;DHT22;12448;45.532;5.290;2024-01-16T12:58:18;4.50;99.90
24326;DHT22;12448;45.532;5.290;2024-01-16T13:00:48;4.80;99.90
24326;DHT22;12448;45.532;5.290;2024-01-16T13:03:51;4.60;99.90
24326;DHT22;12448;45.532;5.290;2024-01-16T13:06:07;4.60;99.90
24326;DHT22;12448;45.532;5.290;2024-01-16T13:08:33;4.60;99.90
24326;DHT22;12448;45.532;5.290;2024-01-16T13:11:06;4.70;99.90
24326;DHT22;12448;45.532;5.290;2024-01-16T13:13:33;4.70;99.90
24326;DHT22;12448;45.532;5.290;2024-01-16T13:15:59;4.70;99.90
24326;DHT22;12448;45.532;5.290;2024-01-16T13:18:28;5.00;99.90
24326;DHT22;12448;45.532;5.290;2024-01-16T13:20:55;4.80;99.90
24326;DHT22;12448;45.532;5.290;2024-01-16T13:23:22;4.80;99.90
24326;DHT22;12448;45.532;5.290;2024-01-16T13:26:00;4.70;99.90
24326;DHT22;12448;45.532;5.290;2024-01-16T13:28:26;4.70;99.90
24326;DHT22;12448;45.532;5.290;2024-01-16T13:30:52;4.90;99.90
24326;DHT22;12448;45.532;5.290;2024-01-16T13:33:29;5.00;99.90
24326;DHT22;12448;45.532;5.290;2024-01-16T13:35:55;4.70;99.90
24326;DHT22;12448;45.532;5.290;2024-01-16T13:38:21;4.60;99.90
24326;DHT22;12448;45.532;5.290;2024-01-16T13:40:47;4.70;99.90
24326;DHT22;12448;45.532;5.290;2024-01-16T13:43:13;4.70;99.90
24326;DHT22;12448;45.532;5.290;2024-01-16T13:45:44;4.70;99.90
24326;DHT22;12448;45.532;5.290;2024-01-16T13:48:15;4.70;99.90
24326;DHT22;12448;45.532;5.290;2024-01-16T13:50:41;4.70;99.90
24326;DHT22;12448;45.532;5.290;2024-01-16T13:53:07;4.70;99.90
24326;DHT22;12448;45.532;5.290;2024-01-16T13:55:33;4.80;99.90
24326;DHT22;12448;45.532;5.290;2024-01-16T13:57:59;4.70;99.90
24326;DHT22;12448;45.532;5.290;2024-01-16T14:00:25;4.70;99.90
24326;DHT22;12448;45.532;5.290;2024-01-16T14:02:53;4.70;99.90
24326;DHT22;12448;45.532;5.290;2024-01-16T14:05:23;4.80;99.90
24326;DHT22;12448;45.532;5.290;2024-01-16T14:07:50;4.80;99.90
24326;DHT22;12448;45.532;5.290;2024-01-16T14:10:18;4.80;99.90
24326;DHT22;12448;45.532;5.290;2024-01-16T14:12:46;4.80;99.90
24326;DHT22;12448;45.532;5.290;2024-01-16T14:15:21;4.90;99.90
24326;DHT22;12448;45.532;5.290;2024-01-16T14:17:51;4.90;99.90
24326;DHT22;12448;45.532;5.290;2024-01-16T14:20:19;4.90;99.90
24326;DHT22;12448;45.532;5.290;2024-01-16T14:22:48;4.80;99.90
24326;DHT22;12448;45.532;5.290;2024-01-16T14:25:14;4.90;99.90
24326;DHT22;12448;45.532;5.290;2024-01-16T14:27:45;4.80;99.90
24326;DHT22;12448;45.532;5.290;2024-01-16T14:30:13;5.10;99.90
24326;DHT22;12448;45.532;5.290;2024-01-16T14:32:43;4.90;99.90
24326;DHT22;12448;45.532;5.290;2024-01-16T14:35:18;4.90;99.90
24326;DHT22;12448;45.532;5.290;2024-01-16T14:37:45;4.80;99.90
24326;DHT22;12448;45.532;5.290;2024-01-16T14:40:11;4.90;99.90
24326;DHT22;12448;45.532;5.290;2024-01-16T14:42:55;4.80;99.90
24326;DHT22;12448;45.532;5.290;2024-01-16T14:45:25;4.80;99.90
24326;DHT22;12448;45.532;5.290;2024-01-16T14:47:52;5.30;99.90
24326;DHT22;12448;45.532;5.290;2024-01-16T14:50:19;4.80;99.90
24326;DHT22;12448;45.532;5.290;2024-01-16T14:52:49;4.80;99.90
24326;DHT22;12448;45.532;5.290;2024-01-16T14:55:16;4.80;99.90
24326;DHT22;12448;45.532;5.290;2024-01-16T14:57:42;4.80;99.90
24326;DHT22;12448;45.532;5.290;2024-01-16T15:00:10;5.10;99.90
24326;DHT22;12448;45.532;5.290;2024-01-16T15:02:53;4.80;99.90
24326;DHT22;12448;45.532;5.290;2024-01-16T15:05:19;4.80;99.90
24326;DHT22;12448;45.532;5.290;2024-01-16T15:07:46;4.90;99.90
24326;DHT22;12448;45.532;5.290;2024-01-16T15:10:12;4.90;99.90
24326;DHT22;12448;45.532;5.290;2024-01-16T15:12:39;4.90;99.90
24326;DHT22;12448;45.532;5.290;2024-01-16T15:15:09;4.90;99.90
24326;DHT22;12448;45.532;5.290;2024-01-16T15:17:39;4.90;99.90
24326;DHT22;12448;45.532;5.290;2024-01-16T15:20:06;4.90;99.90
24326;DHT22;12448;45.532;5.290;2024-01-16T15:22:40;4.90;99.90
24326;DHT22;12448;45.532;5.290;2024-01-16T15:25:07;5.40;99.90
24326;DHT22;12448;45.532;5.290;2024-01-16T15:27:37;5.00;99.90
24326;DHT22;12448;45.532;5.290;2024-01-16T15:30:04;5.00;99.90
24326;DHT22;12448;45.532;5.290;2024-01-16T15:32:34;5.00;99.90
24326;DHT22;12448;45.532;5.290;2024-01-16T15:35:01;4.90;99.90
24326;DHT22;12448;45.532;5.290;2024-01-16T15:37:33;5.00;99.90
24326;DHT22;12448;45.532;5.290;2024-01-16T15:39:59;5.00;99.90
24326;DHT22;12448;45.532;5.290;2024-01-16T15:42:31;5.00;99.90
24326;DHT22;12448;45.532;5.290;2024-01-16T15:44:57;5.00;99.90
24326;DHT22;12448;45.532;5.290;2024-01-16T15:47:22;5.00;99.90
24326;DHT22;12448;45.532;5.290;2024-01-16T15:49:48;5.00;99.90
24326;DHT22;12448;45.532;5.290;2024-01-16T15:52:14;5.00;99.90
24326;DHT22;12448;45.532;5.290;2024-01-16T15:54:40;5.00;99.90
24326;DHT22;12448;45.532;5.290;2024-01-16T15:57:07;5.00;99.90